CYOJ

Details ICAO CYOJ (YOJ)
Name HIGH LEVEL
Region Canada
Timezone America/Edmonton (UTC-7.0)
Plans Departing 0
Arriving 1
Stats Elevation 1,110 ft / 338 m (AMSL)
Location 58.621387° -117.164725°
Runways 1
Magnetic Variation 17.041° E
Sunrise 2017-12-15 16:35:19 UTC / 2017-12-15 09:35:19 Local
Sunset 2017-12-15 22:55:24 UTC / 2017-12-15 15:55:24 Local
Advertisement - Login to hide

Runways

ID Width Length Bearing (true) Bearing (mag) Surface Threshold Offset Overrun Length
13 150 ft / 46 m 4,982 ft / 1,519 m 153.56° 136.52° Asphalt 0 ft / 0 m 0 ft / 0 m
31 150 ft / 46 m 4,982 ft / 1,519 m 333.57° 316.53° Asphalt 0 ft / 0 m 0 ft / 0 m

Map

Weather


0- 5 10 15 20 25 30 35+ Temperature / ° C

Clouds and Precipitation
Forecast for 2017-12-15 18:00 UTC. Updated an hour ago

Ground ~20,000 ft ~40,000 ft Winds

METAR

CYOJ 151500Z 30006G22KT 15SM FEW140 04/M05 A2945 RMK AC2 SLP994

TAF

TAF TAF CYOJ 151238Z 1513/1601 14005KT P6SM OVC120 BECMG 1513/1515 26010KT FEW120 FM151800 30015G30KT 6SM -SN BKN040 BKN100 TEMPO 1518/1601 2SM -SN SCT012 OVC040 RMK FCST BASED ON AUTO OBS. NXT FCST BY 151900Z

Frequencies

Tower 123.25 MHz MF HIGH LEVEL RDO
Warning: Do not use this data for real-world aviation or navigation. No guarantee of current accuracy is given.